createdAt,value
2022-10-09T00:00:24.289Z,1009.43
2022-10-09T00:05:24.215Z,1009.42
2022-10-09T00:10:24.205Z,1009.44
2022-10-09T00:15:24.114Z,1009.54
2022-10-09T00:20:24.059Z,1009.51
2022-10-09T00:25:24.168Z,1009.48
2022-10-09T00:30:23.967Z,1009.58
2022-10-09T00:35:24.055Z,1009.53
2022-10-09T00:40:23.885Z,1009.58
2022-10-09T00:45:24.958Z,1009.55
2022-10-09T00:50:23.885Z,1009.48
2022-10-09T00:55:23.696Z,1009.51
2022-10-09T01:00:23.630Z,1009.50
2022-10-09T01:05:23.563Z,1009.56
2022-10-09T01:10:23.550Z,1009.58
2022-10-09T01:15:23.654Z,1009.59
2022-10-09T01:20:23.474Z,1009.58
2022-10-09T01:25:23.351Z,1009.54
2022-10-09T01:30:23.393Z,1009.43
2022-10-09T01:35:23.368Z,1009.44
2022-10-09T01:40:23.275Z,1009.37
2022-10-09T01:45:23.232Z,1009.32
2022-10-09T01:50:23.296Z,1009.38
2022-10-09T01:55:23.219Z,1009.32
2022-10-09T02:00:23.287Z,1009.34
2022-10-09T02:05:23.006Z,1009.32
2022-10-09T02:10:23.889Z,1009.20
2022-10-09T02:15:22.821Z,1009.20
2022-10-09T02:20:22.819Z,1009.10
2022-10-09T02:25:22.708Z,1009.08
2022-10-09T02:30:22.659Z,1009.06
2022-10-09T02:35:22.580Z,1008.99
2022-10-09T02:40:22.553Z,1008.99
2022-10-09T02:45:22.526Z,1009.02
2022-10-09T02:50:22.626Z,1009.01
2022-10-09T02:55:23.531Z,1009.08
2022-10-09T03:00:22.486Z,1009.06
2022-10-09T03:05:22.349Z,1009.03
2022-10-09T03:10:23.417Z,1009.00
2022-10-09T03:15:22.275Z,1008.95
2022-10-09T03:20:22.264Z,1008.95
2022-10-09T03:25:22.111Z,1008.92
2022-10-09T03:30:22.159Z,1008.93
2022-10-09T03:35:21.955Z,1008.91
2022-10-09T03:40:21.872Z,1008.97
2022-10-09T03:45:21.833Z,1008.97
2022-10-09T03:50:21.825Z,1008.95
2022-10-09T03:55:21.760Z,1008.93
2022-10-09T04:00:21.702Z,1008.89
2022-10-09T04:05:21.767Z,1008.90
2022-10-09T04:10:22.640Z,1008.84
2022-10-09T04:15:21.648Z,1008.82
2022-10-09T04:20:21.502Z,1008.82
2022-10-09T04:25:21.549Z,1008.79
2022-10-09T04:30:21.513Z,1008.80
2022-10-09T04:35:21.315Z,1008.83
2022-10-09T04:40:21.273Z,1008.80
2022-10-09T04:45:21.230Z,1008.72
2022-10-09T04:50:21.160Z,1008.67
2022-10-09T04:55:21.113Z,1008.63
2022-10-09T05:00:21.185Z,1008.64
2022-10-09T05:05:20.976Z,1008.62
2022-10-09T05:10:21.083Z,1008.63
2022-10-09T05:15:20.958Z,1008.60
2022-10-09T05:20:20.889Z,1008.59
2022-10-09T05:25:20.979Z,1008.53
2022-10-09T05:30:21.782Z,1008.62
2022-10-09T05:35:21.008Z,1008.63
2022-10-09T05:40:21.512Z,1008.61
2022-10-09T05:45:20.664Z,1008.62
2022-10-09T05:50:20.613Z,1008.65
2022-10-09T05:55:20.550Z,1008.62
2022-10-09T06:00:20.519Z,1008.61
2022-10-09T06:05:20.518Z,1008.57
2022-10-09T06:10:20.263Z,1008.60
2022-10-09T06:15:20.487Z,1008.60
2022-10-09T06:20:20.503Z,1008.61
2022-10-09T06:25:21.235Z,1008.68
2022-10-09T06:30:20.064Z,1008.65
2022-10-09T06:57:28.184Z,1008.65
2022-10-09T07:02:27.862Z,1008.67
2022-10-09T07:07:27.783Z,1008.66
2022-10-09T07:12:27.691Z,1008.64
2022-10-09T07:17:27.687Z,1008.64
2022-10-09T07:22:27.712Z,1008.67
2022-10-09T07:27:27.493Z,1008.61
2022-10-09T07:32:27.444Z,1008.64
2022-10-09T07:37:27.456Z,1008.66
2022-10-09T07:42:27.365Z,1008.63
2022-10-09T07:47:27.274Z,1008.58
2022-10-09T07:52:27.365Z,1008.49
2022-10-09T07:57:27.278Z,1008.56
2022-10-09T08:02:27.165Z,1008.42
2022-10-09T08:07:30.311Z,1008.39
2022-10-09T08:12:28.111Z,1008.26
2022-10-09T08:17:27.120Z,1008.19
2022-10-09T08:22:28.042Z,1008.27
2022-10-09T08:27:26.915Z,1008.17
2022-10-09T08:32:27.002Z,1008.17
2022-10-09T08:37:26.909Z,1008.16
2022-10-09T08:42:28.233Z,1008.19
2022-10-09T08:47:27.770Z,1008.12
2022-10-09T08:52:26.732Z,1008.05
2022-10-09T08:57:26.490Z,1007.99
2022-10-09T09:02:26.497Z,1007.97
2022-10-09T09:07:26.418Z,1007.91
2022-10-09T09:12:26.370Z,1007.84
2022-10-09T09:17:26.294Z,1007.72
2022-10-09T09:22:26.205Z,1007.66
2022-10-09T09:27:26.157Z,1007.57
2022-10-09T09:32:26.113Z,1007.50
2022-10-09T09:37:26.092Z,1007.44
2022-10-09T09:42:26.121Z,1007.39
2022-10-09T09:47:25.932Z,1007.37
2022-10-09T09:52:25.870Z,1007.27
2022-10-09T09:57:34.667Z,1007.16
2022-10-09T10:02:25.802Z,1007.11
2022-10-09T10:07:25.694Z,1007.04
2022-10-09T10:12:25.649Z,1006.95
2022-10-09T10:17:25.604Z,1006.82
2022-10-09T10:22:25.522Z,1006.77
2022-10-09T10:27:25.463Z,1006.74
2022-10-09T10:32:25.429Z,1006.71
2022-10-09T10:37:25.447Z,1006.65
2022-10-09T10:42:27.637Z,1006.62
2022-10-09T10:47:25.318Z,1006.49
2022-10-09T10:52:25.198Z,1006.39
2022-10-09T10:57:25.146Z,1006.34
2022-10-09T11:02:25.088Z,1006.16
2022-10-09T11:07:25.038Z,1006.14
2022-10-09T11:12:46.912Z,1006.02
2022-10-09T11:17:25.954Z,1006.00
2022-10-09T11:22:24.892Z,1005.92
2022-10-09T11:27:24.848Z,1005.77
2022-10-09T11:32:24.898Z,1005.66
2022-10-09T11:37:24.794Z,1005.50
2022-10-09T11:42:24.834Z,1005.54
2022-10-09T11:47:24.690Z,1005.45
2022-10-09T11:52:24.628Z,1005.38
2022-10-09T11:57:24.560Z,1005.23
2022-10-09T12:02:24.620Z,1005.20
2022-10-09T12:07:24.471Z,1005.04
2022-10-09T12:12:24.410Z,1004.94
2022-10-09T12:17:24.369Z,1004.80
2022-10-09T12:22:24.295Z,1004.74
2022-10-09T12:27:24.223Z,1004.71
2022-10-09T12:32:25.204Z,1004.71
2022-10-09T12:37:24.121Z,1004.64
2022-10-09T12:42:24.155Z,1004.62
2022-10-09T12:47:23.996Z,1004.55
2022-10-09T12:52:23.967Z,1004.46
2022-10-09T12:57:26.867Z,1004.39
2022-10-09T13:02:24.947Z,1004.34
2022-10-09T13:07:23.807Z,1004.23
2022-10-09T13:12:23.867Z,1004.26
2022-10-09T13:17:23.719Z,1004.22
2022-10-09T13:22:23.621Z,1004.15
2022-10-09T13:27:23.580Z,1004.04
2022-10-09T13:32:23.601Z,1003.94
2022-10-09T13:37:23.532Z,1003.96
2022-10-09T13:42:23.552Z,1003.94
2022-10-09T13:47:24.609Z,1003.86
2022-10-09T13:52:23.290Z,1003.81
2022-10-09T13:57:23.312Z,1003.75
2022-10-09T14:02:23.256Z,1003.73
2022-10-09T14:07:23.179Z,1003.63
2022-10-09T14:12:23.170Z,1003.58
2022-10-09T14:17:23.020Z,1003.48
2022-10-09T14:22:22.916Z,1003.40
2022-10-09T14:27:23.830Z,1003.28
2022-10-09T14:32:22.856Z,1003.23
2022-10-09T14:37:41.232Z,1003.21
2022-10-09T14:42:23.755Z,1003.14
2022-10-09T14:47:22.835Z,1003.09
2022-10-09T14:52:22.643Z,1002.96
2022-10-09T14:57:22.623Z,1002.94
2022-10-09T15:02:22.566Z,1002.84
2022-10-09T15:07:22.547Z,1002.84
2022-10-09T15:12:22.485Z,1002.83
2022-10-09T15:17:22.417Z,1002.79
2022-10-09T15:22:22.381Z,1002.73
2022-10-09T15:27:22.262Z,1002.62
2022-10-09T15:32:22.191Z,1002.53
2022-10-09T15:37:22.260Z,1002.45
2022-10-09T15:42:22.141Z,1002.41
2022-10-09T15:47:39.253Z,1002.42
2022-10-09T15:52:22.927Z,1002.32
2022-10-09T16:00:04.423Z,1002.25
2022-10-09T16:05:04.433Z,1002.22
2022-10-09T16:10:04.378Z,1002.28
2022-10-09T16:15:04.317Z,1002.21
2022-10-09T16:20:04.277Z,1002.16
2022-10-09T16:25:04.919Z,1002.09
2022-10-09T16:30:04.256Z,1002.08
2022-10-09T16:35:05.106Z,1002.01
2022-10-09T16:40:03.997Z,1002.02
2022-10-09T16:45:04.387Z,1002.00
2022-10-09T16:50:04.008Z,1001.95
2022-10-09T16:55:03.838Z,1002.01
2022-10-09T17:00:03.891Z,1001.95
2022-10-09T17:05:03.865Z,1001.95
2022-10-09T17:10:03.649Z,1001.95
2022-10-09T17:15:03.614Z,1001.94
2022-10-09T17:20:03.715Z,1001.94
2022-10-09T17:25:03.581Z,1001.88
2022-10-09T17:30:03.487Z,1001.90
2022-10-09T17:35:03.429Z,1001.90
2022-10-09T17:40:03.427Z,1001.90
2022-10-09T17:45:03.312Z,1001.94
2022-10-09T17:50:03.321Z,1001.95
2022-10-09T17:55:03.233Z,1001.95
2022-10-09T18:00:03.123Z,1001.98
2022-10-09T18:05:03.202Z,1001.91
2022-10-09T18:10:03.002Z,1001.85
2022-10-09T18:15:03.993Z,1001.78
2022-10-09T18:20:03.017Z,1001.75
2022-10-09T18:25:02.853Z,1001.68
2022-10-09T18:30:02.803Z,1001.71
2022-10-09T18:35:02.727Z,1001.65
2022-10-09T18:40:02.695Z,1001.64
2022-10-09T18:45:02.826Z,1001.59
2022-10-09T18:50:02.654Z,1001.57
2022-10-09T18:55:02.615Z,1001.53
2022-10-09T19:00:02.451Z,1001.46
2022-10-09T19:05:02.474Z,1001.46
2022-10-09T19:10:02.344Z,1001.51
2022-10-09T19:15:02.451Z,1001.51
2022-10-09T19:20:02.411Z,1001.45
2022-10-09T19:25:03.289Z,1001.41
2022-10-09T19:30:02.132Z,1001.38
2022-10-09T19:35:02.092Z,1001.31
2022-10-09T19:40:02.081Z,1001.32
2022-10-09T19:45:02.108Z,1001.28
2022-10-09T19:50:02.078Z,1001.24
2022-10-09T19:55:02.061Z,1001.21
2022-10-09T20:00:01.845Z,1001.13
2022-10-09T20:05:01.744Z,1001.11
2022-10-09T20:10:01.812Z,1001.02
2022-10-09T20:15:01.624Z,1001.05
2022-10-09T20:20:01.662Z,1001.02
2022-10-09T20:25:01.620Z,1001.02
2022-10-09T20:30:01.529Z,1000.94
2022-10-09T20:35:01.567Z,1000.97
2022-10-09T20:40:01.434Z,1000.89
2022-10-09T20:45:01.372Z,1000.80
2022-10-09T20:50:01.406Z,1000.85
2022-10-09T20:55:01.251Z,1000.79
2022-10-09T21:00:01.167Z,1000.69
2022-10-09T21:05:01.287Z,1000.65
2022-10-09T21:10:01.118Z,1000.62
2022-10-09T21:15:01.055Z,1000.60
2022-10-09T21:20:00.967Z,1000.58
2022-10-09T21:25:00.909Z,1000.49
2022-10-09T21:30:00.783Z,1000.49
2022-10-09T21:35:00.832Z,1000.46
2022-10-09T21:40:00.775Z,1000.40
2022-10-09T21:45:00.660Z,1000.36
2022-10-09T21:50:01.751Z,1000.34
2022-10-09T21:55:00.646Z,1000.31
2022-10-09T22:00:00.562Z,1000.31
2022-10-09T22:05:00.420Z,1000.20
2022-10-09T22:10:00.404Z,1000.13
2022-10-09T22:15:00.515Z,1000.08
2022-10-09T22:20:00.463Z,999.97
2022-10-09T22:25:00.301Z,999.97
2022-10-09T22:30:00.248Z,999.87
2022-10-09T22:35:00.173Z,999.88
2022-10-09T22:40:00.091Z,999.80
2022-10-09T22:45:01.038Z,999.80
2022-10-09T22:49:59.917Z,999.77
2022-10-09T22:55:00.011Z,999.69
2022-10-09T22:59:59.799Z,999.77
2022-10-09T23:04:59.781Z,999.69
2022-10-09T23:09:59.727Z,999.68
2022-10-09T23:15:00.729Z,999.56
2022-10-09T23:19:59.726Z,999.52
2022-10-09T23:24:59.635Z,999.52
2022-10-09T23:30:00.525Z,999.46
2022-10-09T23:34:59.450Z,999.42
2022-10-09T23:39:59.633Z,999.38
2022-10-09T23:45:00.436Z,999.35
2022-10-09T23:49:59.451Z,999.32
2022-10-09T23:54:59.235Z,999.34
2022-10-09T23:59:59.181Z,999.36
